Latest Weather Observations for Moree

IDN60801

Issued at 12:03 pm EST Wednesday 8 July 2015 (issued every 30 minutes, with the page automatically refreshed every 10 minutes)

About weather observations | Map of weather stations | Latest weather observations for NSW | Other Formats
Station Details ID: 053115 Name: MOREE AERO Lat: -29.49 Lon: 149.85 Height: 213.0 m
Data from the previous 72 hours. | See also: Recent months at Moree
Date/Time
EST
Temp
°C
App
Temp
°C
Dew
Point
Rel
Hum
%
Delta-T
°C
Wind Press
QNH
hPa
Press
MSL
hPa
Rain
since 9 am
mm
Dir
 
Spd
km/h
Gust
km/h
Spd
kts
Gust
kts
08/11:30am 16.1 11.8 5.4 49 5.1 E 17 22 9 12 1025.0 1025.2 0.0
08/11:00am 15.6 10.9 5.2 50 5.0 E 19 26 10 14 1025.2 1025.4 0.0
08/10:30am 14.5 8.8 4.8 52 4.6 E 24 30 13 16 1025.4 1025.6 0.0
08/09:30am 12.1 7.8 5.3 63 3.2 ESE 17 22 9 12 1025.5 1025.7 0.0
08/08:00am 5.3 1.3 2.8 84 1.0 E 13 17 7 9 1024.9 1025.1 0.0
08/07:30am 3.8 -1.1 2.0 88 0.7 E 17 19 9 10 1024.7 1024.9 0.0
08/06:30am 2.4 -2.3 1.1 91 0.5 E 15 15 8 8 1024.2 1024.4 0.0
08/05:30am 2.2 -2.2 0.3 87 0.7 E 13 15 7 8 1023.6 1023.7 0.0
08/05:00am 3.0 -1.4 0.6 84 0.9 SE 13 15 7 8 1023.4 1023.5 0.0
08/04:30am 5.1 1.0 2.5 83 1.1 SE 13 15 7 8 1023.3 1023.4 0.0
08/04:00am 3.7 -0.5 1.9 88 0.7 SE 13 13 7 7 1023.2 1023.3 0.0
08/03:30am 3.9 0.1 1.9 87 0.8 SE 11 13 6 7 1023.3 1023.4 0.0
08/03:00am 3.8 -0.4 1.8 87 0.8 SSE 13 13 7 7 1023.2 1023.3 0.0
08/02:30am 5.1 1.5 2.8 85 1.0 SE 11 13 6 7 1023.2 1023.3 0.0
08/02:00am 4.6 0.8 2.0 83 1.0 SE 11 15 6 8 1023.4 1023.5 0.0
08/01:30am 5.1 1.9 3.0 86 0.9 ESE 9 11 5 6 1023.5 1023.6 0.0
08/01:00am 4.5 1.3 3.0 90 0.6 E 9 11 5 6 1023.5 1023.6 0.0
08/12:30am 3.6 -0.2 1.8 88 0.7 ESE 11 17 6 9 1023.4 1023.5 0.0
08/12:00am 4.9 1.6 2.6 85 0.9 SW 9 11 5 6 1023.2 1023.3 0.0
 
Date/Time
EST
Temp
°C
App
Temp
°C
Dew
Point
Rel
Hum
%
Delta-T
°C
Wind Press
QNH
hPa
Press
MSL
hPa
Rain
since 9 am
mm
Dir
 
Spd
km/h
Gust
km/h
Spd
kts
Gust
kts
07/11:30pm 5.1 2.0 3.8 91 0.6 SSW 9 9 5 5 1023.2 1023.3 0.0
07/11:00pm 5.7 3.6 4.0 89 0.7 WSW 4 9 2 5 1023.3 1023.4 0.0
07/10:30pm 6.2 4.9 3.9 85 1.0 CALM 0 0 0 0 1023.3 1023.4 0.0
07/10:00pm 6.9 5.6 4.0 82 1.3 CALM 0 0 0 0 1023.2 1023.3 0.0
07/09:30pm 7.5 5.1 4.1 79 1.5 SE 6 7 3 4 1023.1 1023.2 0.0
07/09:00pm 8.2 4.8 4.0 75 1.8 SE 11 11 6 6 1022.9 1023.0 0.0
07/08:30pm 8.9 4.8 4.3 73 2.0 SE 15 17 8 9 1022.8 1022.9 0.0
07/08:00pm 8.9 6.0 4.7 75 1.9 S 9 11 5 6 1022.4 1022.5 0.0
07/07:30pm 8.8 6.2 4.2 73 2.0 S 7 9 4 5 1022.2 1022.3 0.0
07/07:00pm 9.6 7.0 4.4 70 2.3 SW 7 9 4 5 1022.2 1022.3 0.0
07/06:30pm 10.4 7.5 4.5 67 2.7 WSW 9 15 5 8 1022.0 1022.1 0.0
07/06:00pm 11.3 7.7 5.0 65 2.9 S 13 13 7 7 1021.6 1021.7 0.0
07/05:30pm 11.7 7.6 4.2 60 3.4 S 15 17 8 9 1021.1 1021.3 0.0
07/05:00pm 13.8 9.7 4.4 53 4.4 S 15 19 8 10 1020.9 1021.1 0.0
07/04:30pm 15.3 10.3 4.4 48 5.1 SSW 20 28 11 15 1020.6 1020.8 0.0
07/04:00pm 15.9 10.5 4.6 47 5.3 SSW 22 28 12 15 1020.4 1020.6 0.0
07/03:30pm 16.3 9.6 3.4 42 6.0 SSW 28 35 15 19 1020.3 1020.5 0.0
07/03:00pm 16.2 9.4 3.3 42 6.0 S 28 37 15 20 1020.1 1020.3 0.0
07/02:30pm 16.2 8.7 3.3 42 6.0 SSW 32 39 17 21 1020.1 1020.3 0.0
07/02:00pm 16.1 9.1 3.9 44 5.7 SSW 30 35 16 19 1020.0 1020.2 0.0
07/01:30pm 16.1 9.5 4.2 45 5.6 SSW 28 35 15 19 1020.0 1020.2 0.0
07/01:00pm 16.2 9.5 3.9 44 5.8 SSW 28 35 15 19 1020.2 1020.4 0.0
07/12:30pm 15.6 9.0 4.3 47 5.3 SSW 28 35 15 19 1020.4 1020.6 0.0
07/12:00pm 15.4 9.8 5.3 51 4.8 S 24 32 13 17 1020.8 1021.0 0.0
07/11:30am 14.6 9.8 5.7 55 4.3 S 20 32 11 17 1021.2 1021.4 0.0
07/11:00am 13.3 10.2 5.7 60 3.6 SE 11 17 6 9 1021.6 1021.7 0.0
07/10:30am 12.2 9.2 5.8 65 3.0 SSE 11 15 6 8 1021.9 1022.0 0.0
07/10:00am 11.3 7.7 5.0 65 2.9 SSE 13 19 7 10 1022.1 1022.2 0.0
07/09:30am 9.4 7.7 4.2 70 2.3 S 2 9 1 5 1022.1 1022.2 0.0
07/09:00am 8.2 6.8 3.3 71 2.1 CALM 0 0 0 0 1022.0 1022.1 0.0
07/08:30am 6.0 3.4 3.2 82 1.2 ENE 6 7 3 4 1021.7 1021.8 0.0
07/08:00am 5.0 3.4 2.4 83 1.1 CALM 0 0 0 0 1021.3 1021.5 0.0
07/07:30am 2.2 0.0 0.9 91 0.5 E 2 7 1 4 1021.0 1021.2 0.0
07/07:00am 1.5 -1.2 0.6 94 0.3 E 4 7 2 4 1020.5 1020.7 0.0
07/06:30am 1.2 -0.8 0.0 92 0.4 CALM 0 0 0 0 1020.3 1020.5 0.0
07/06:00am 1.6 -0.3 0.3 91 0.5 CALM 0 0 0 0 1019.8 1019.9 0.0
07/05:30am 2.5 -1.0 1.2 91 0.5 S 9 11 5 6 1019.4 1019.5 0.0
07/05:00am 1.5 -2.6 -0.1 89 0.6 S 11 11 6 6 1019.1 1019.2 0.0
07/04:30am 1.9 -2.1 0.3 89 0.6 S 11 13 6 7 1018.9 1019.0 0.0
07/04:00am 2.3 -1.7 0.8 90 0.6 SSW 11 11 6 6 1019.0 1019.1 0.0
07/03:30am 2.5 -1.0 1.2 91 0.5 SW 9 9 5 5 1019.0 1019.1 0.0
07/03:00am 2.3 -1.3 0.5 88 0.7 SSW 9 9 5 5 1019.0 1019.1 0.0
07/02:30am 2.8 -0.8 0.9 87 0.7 SSW 9 11 5 6 1019.1 1019.2 0.0
07/02:00am 3.4 -0.5 1.3 86 0.8 SW 11 13 6 7 1019.1 1019.2 0.0
07/01:30am 3.9 -0.3 1.6 85 0.9 SW 13 15 7 8 1019.0 1019.1 0.0
07/01:00am 3.8 0.0 1.5 85 0.9 SW 11 13 6 7 1019.1 1019.2 0.0
07/12:30am 4.2 0.0 1.6 83 1.0 SSW 13 13 7 7 1019.2 1019.3 0.0
07/12:00am 5.5 1.4 2.3 80 1.3 SSW 13 13 7 7 1019.2 1019.3 0.0
 
Date/Time
EST
Temp
°C
App
Temp
°C
Dew
Point
Rel
Hum
%
Delta-T
°C
Wind Press
QNH
hPa
Press
MSL
hPa
Rain
since 9 am
mm
Dir
 
Spd
km/h
Gust
km/h
Spd
kts
Gust
kts
06/11:30pm 5.7 1.6 2.5 80 1.3 SSW 13 13 7 7 1019.4 1019.5 0.0
06/11:00pm 6.0 2.4 2.8 80 1.3 S 11 13 6 7 1019.5 1019.6 0.0
06/10:30pm 6.2 2.6 2.7 78 1.5 SSW 11 13 6 7 1019.7 1019.8 0.0
06/10:00pm 6.6 3.0 3.0 78 1.5 SSW 11 13 6 7 1019.5 1019.6 0.0
06/09:30pm 6.8 3.6 3.2 78 1.5 SSW 9 11 5 6 1019.4 1019.5 0.0
06/09:00pm 7.3 3.8 3.4 76 1.7 SSW 11 11 6 6 1019.4 1019.5 0.0
06/08:30pm 7.8 3.8 3.1 72 2.0 SSW 13 13 7 7 1019.4 1019.5 0.0
06/08:00pm 9.0 4.7 3.4 68 2.4 SSW 15 17 8 9 1019.1 1019.2 0.0
06/07:30pm 10.2 6.0 3.9 65 2.8 SSW 15 15 8 8 1018.7 1018.8 0.0
06/07:00pm 10.0 5.8 4.0 66 2.7 SSW 15 15 8 8 1018.5 1018.6 0.0
06/06:30pm 10.9 6.8 4.6 65 2.9 SSW 15 15 8 8 1018.3 1018.4 0.0
06/06:00pm 11.7 8.0 4.4 61 3.3 SSW 13 13 7 7 1018.1 1018.2 0.0
06/05:30pm 13.3 9.3 4.7 56 4.0 SW 15 17 8 9 1017.8 1017.9 0.0
06/05:00pm 15.3 10.9 4.7 49 5.0 SW 17 26 9 14 1017.5 1017.6 0.0
06/04:30pm 16.8 11.9 5.1 46 5.7 SW 20 22 11 12 1017.2 1017.3 0.0
06/04:00pm 17.5 12.5 4.8 43 6.1 WSW 20 26 11 14 1017.0 1017.1 0.0
06/03:30pm 17.8 12.8 4.4 41 6.4 WSW 20 28 11 15 1016.8 1016.9 0.0
06/03:00pm 18.2 13.4 5.4 43 6.3 WSW 20 28 11 15 1016.8 1016.9 0.0
06/02:30pm 17.8 13.0 5.4 44 6.1 WSW 20 30 11 16 1016.8 1016.9 0.0
06/02:00pm 17.9 13.3 5.5 44 6.1 W 19 28 10 15 1016.9 1017.0 0.0
06/01:30pm 17.8 13.3 4.4 41 6.4 WSW 17 22 9 12 1017.2 1017.3 0.0
06/01:00pm 17.7 15.0 7.4 51 5.2 W 11 19 6 10 1017.4 1017.5 0.0
06/12:30pm 17.7 14.9 8.6 55 4.7 W 13 19 7 10 1018.1 1018.2 0.0
06/12:00pm 17.6 15.9 8.5 55 4.7 W 7 19 4 10 1018.5 1018.6 0.0
06/11:30am 16.9 15.6 9.1 60 4.1 NNW 6 11 3 6 1019.0 1019.1 0.0
06/11:00am 15.8 13.7 8.1 60 3.9 NNW 9 15 5 8 1019.4 1019.5 0.0
06/10:30am 15.1 14.3 8.3 64 3.5 NNW 2 11 1 6 1019.8 1019.9 0.0
06/10:00am 13.4 12.8 7.2 66 3.0 CALM 0 0 0 0 1020.2 1020.4 0.0
06/09:30am 11.3 10.5 6.4 72 2.3 CALM 0 0 0 0 1020.3 1020.5 0.0
06/09:00am 9.6 8.8 6.3 80 1.5 CALM 0 0 0 0 1020.3 1020.5 0.0
06/08:30am 7.7 6.6 5.3 85 1.1 CALM 0 0 0 0 1020.2 1020.4 0.0
06/08:00am 6.1 5.0 4.9 92 0.5 CALM 0 0 0 0 1019.8 1019.9 0.0
06/07:30am 4.2 2.8 3.6 96 0.3 CALM 0 0 0 0 1019.5 1019.6 0.0
06/07:00am 3.1 1.5 2.5 96 0.2 CALM 0 0 0 0 1019.5 1019.6 0.0
06/06:30am 3.2 1.6 2.6 96 0.2 CALM 0 0 0 0 1019.3 1019.4 0.0
06/06:00am 3.6 0.4 3.0 96 0.2 ENE 9 9 5 5 1019.0 1019.1 0.0
06/05:30am 3.9 1.1 3.3 96 0.2 ENE 7 9 4 5 1019.0 1019.1 0.0
06/05:00am 3.8 0.6 3.1 95 0.3 E 9 9 5 5 1018.8 1018.9 0.0
06/04:30am 4.4 1.3 3.7 95 0.3 E 9 9 5 5 1018.9 1019.0 0.0
06/04:00am 4.1 0.9 3.1 93 0.4 E 9 11 5 6 1019.0 1019.1 0.0
06/03:30am 4.8 1.7 3.8 93 0.4 E 9 11 5 6 1019.1 1019.2 0.0
06/03:00am 4.9 1.4 3.7 92 0.5 E 11 13 6 7 1019.1 1019.2 0.0
06/02:30am 5.6 2.7 4.4 92 0.5 E 9 13 5 7 1019.3 1019.4 0.0
06/02:00am 6.2 2.5 4.7 90 0.7 NE 13 15 7 8 1019.5 1019.6 0.0
06/01:30am 5.9 2.7 4.9 93 0.4 ENE 11 15 6 8 1019.6 1019.7 0.0
06/01:00am 5.7 2.8 4.5 92 0.5 ENE 9 13 5 7 1019.9 1020.0 0.0
06/12:30am 6.0 3.5 5.0 93 0.4 ENE 7 11 4 6 1020.0 1020.2 0.0
06/12:00am 6.0 3.1 4.5 90 0.7 ESE 9 9 5 5 1020.0 1020.2 0.0
 
Date/Time
EST
Temp
°C
App
Temp
°C
Dew
Point
Rel
Hum
%
Delta-T
°C
Wind Press
QNH
hPa
Press
MSL
hPa
Rain
since 9 am
mm
Dir
 
Spd
km/h
Gust
km/h
Spd
kts
Gust
kts
05/11:30pm 6.5 5.4 5.0 90 0.7 CALM 0 0 0 0 1020.1 1020.3 0.0
05/11:00pm 6.8 5.6 4.6 86 1.0 CALM 0 0 0 0 1020.1 1020.3 0.0
05/10:30pm 8.4 7.6 6.4 87 0.9 CALM 0 0 0 0 1020.2 1020.4 0.0
05/10:00pm 8.9 6.8 6.5 85 1.1 E 7 9 4 5 1020.1 1020.3 0.0
05/09:30pm 9.6 7.2 7.2 85 1.1 E 9 11 5 6 1020.1 1020.3 0.0
05/09:00pm 9.4 6.6 6.8 84 1.2 ESE 11 13 6 7 1020.1 1020.3 0.0
05/08:30pm 9.6 8.8 6.7 82 1.4 CALM 0 0 0 0 1020.3 1020.5 0.0
05/08:00pm 10.3 8.8 6.8 79 1.7 S 4 7 2 4 1020.4 1020.6 0.0
05/07:30pm 11.0 10.3 7.1 77 1.9 CALM 0 0 0 0 1020.3 1020.5 0.0
05/07:00pm 11.2 10.5 6.9 75 2.1 CALM 0 0 0 0 1020.3 1020.5 0.0
05/06:30pm 12.1 10.9 6.4 68 2.7 S 2 6 1 3 1020.1 1020.3 0.0
05/06:00pm 13.7 10.9 6.8 63 3.4 SW 11 13 6 7 1020.1 1020.3 0.0
05/05:30pm 15.9 13.5 7.1 56 4.4 WSW 9 13 5 7 1019.7 1019.8 0.0
05/05:00pm 17.3 14.9 7.1 51 5.1 WSW 9 11 5 6 1019.6 1019.7 0.0
05/04:30pm 18.6 17.1 6.8 46 6.0 NNW 4 9 2 5 1019.5 1019.6 0.0
05/04:00pm 18.6 16.2 6.8 46 6.0 NNW 9 11 5 6 1019.4 1019.5 0.0
05/03:30pm 19.0 18.2 6.5 44 6.3 CALM 0 11 0 6 1019.8 1019.9 0.0
05/03:00pm 19.0 16.8 7.8 48 5.8 N 9 15 5 8 1019.6 1019.7 0.0
05/02:30pm 18.9 16.7 6.4 44 6.3 NNW 7 17 4 9 1019.7 1019.8 0.0
05/02:00pm 18.7 16.9 7.2 47 5.9 NNE 6 11 3 6 1020.0 1020.2 0.0
05/01:30pm 18.3 16.9 7.4 49 5.6 NE 4 11 2 6 1020.4 1020.6 0.0
05/01:00pm 18.5 16.4 8.2 51 5.3 NE 9 15 5 8 1020.8 1021.0 0.0
05/12:30pm 18.0 15.8 7.7 51 5.3 NE 9 13 5 7 1021.1 1021.3 0.0

Other Formats:

Comma delimited format used in spreadsheet applications
http://www.bom.gov.au/fwo/IDN60801/IDN60801.95527.axf

JavaScript Object Notation format (JSON) in row-major order
http://www.bom.gov.au/fwo/IDN60801/IDN60801.95527.json